Temp: 14.0°C   Baro: 995.2mb
  Wind: 6.0mph   Dir: SW (228°)
  Rain: 0.4mm (0.0mm/hr)
  Solar: 81W/m2  Hum: 88%
 
Bath Spa Weather Station Historical Data
Daily Summary for October 18, 2020 Units:  Both    English   Metric
Daily Weekly Monthly Yearly Custom
  High: Low: Average:
Temperature: 53.1 °F /  11.7 °C 38.3 °F /  3.5 °C 47.2 °F /  8.4 °C
Dew Point: 47.4 °F /  8.6 °C 36.9 °F /  2.7 °C 43.9 °F /  6.6 °C
Humidity: 93% 73% 86%
Wind Speed: 2.7mph /  4.3km/h - 0.2mph /  0.3km/h
Wind Gust: 5mph /  8km/h - -
Wind- - SSW
Pressure: 30.27 in /  1024.9 hPa 30.16 in /  1021.2 hPa -
Precipitation: 0.00 in /  0 mm    
Historical Graphs
 
 
Tabular Data for October 18, 2020
Time Temperature Dew Point Pressure Wind Wind Speed Wind Gust Humidity Rainfall Rate (Hourly) solar
00:04 48.6 °F /  9.2 °C 45.1 °F /  7.3 °C 30.24in /  1023.9hPa Calm     85% 0.00in /  0mm 0 W/m2
00:09 48.5 °F /  9.2 °C 45.1 °F /  7.3 °C 30.24in /  1023.9hPa Calm     85% 0.00in /  0mm 0 W/m2
00:14 48.4 °F /  9.1 °C 45 °F /  7.2 °C 30.23in /  1023.6hPa Calm     85% 0.00in /  0mm 0 W/m2
00:19 48.5 °F /  9.2 °C 45.1 °F /  7.3 °C 30.23in /  1023.6hPa Calm     85% 0.00in /  0mm 0 W/m2
00:24 48.4 °F /  9.1 °C 45 °F /  7.2 °C 30.23in /  1023.6hPa Calm     85% 0.00in /  0mm 0 W/m2
00:29 48.4 °F /  9.1 °C 45 °F /  7.2 °C 30.23in /  1023.6hPa South 0.2mph /  0.3km/h 2mph /  3.2km/h 85% 0.00in /  0mm 0 W/m2
00:34 48.4 °F /  9.1 °C 45 °F /  7.2 °C 30.23in /  1023.6hPa South 0.2mph /  0.3km/h 2mph /  3.2km/h 85% 0.00in /  0mm 0 W/m2
00:39 48.4 °F /  9.1 °C 45 °F /  7.2 °C 30.23in /  1023.6hPa Calm     85% 0.00in /  0mm 0 W/m2
00:44 48.4 °F /  9.1 °C 45 °F /  7.2 °C 30.23in /  1023.6hPa Calm     85% 0.00in /  0mm 0 W/m2
00:49 48.4 °F /  9.1 °C 45 °F /  7.2 °C 30.23in /  1023.6hPa South 1.8mph /  2.9km/h 3mph /  4.8km/h 85% 0.00in /  0mm 0 W/m2
00:54 48.3 °F /  9.1 °C 45 °F /  7.2 °C 30.23in /  1023.6hPa Calm   2mph /  3.2km/h 85.4% 0.00in /  0mm 0 W/m2
00:59 48.1 °F /  8.9 °C 44.8 °F /  7.1 °C 30.23in /  1023.6hPa South 1.1mph /  1.8km/h 3mph /  4.8km/h 85.4% 0.00in /  0mm 0 W/m2
01:04 48 °F /  8.9 °C 44.9 °F /  7.2 °C 30.23in /  1023.6hPa South 0.8mph /  1.3km/h 3mph /  4.8km/h 85.8% 0.00in /  0mm 0 W/m2
01:09 48 °F /  8.9 °C 45 °F /  7.2 °C 30.23in /  1023.6hPa South 1.8mph /  2.9km/h 3mph /  4.8km/h 86% 0.00in /  0mm 0 W/m2
01:13 48 °F /  8.9 °C 45 °F /  7.2 °C 30.23in /  1023.6hPa SSE 1.5mph /  2.4km/h 3mph /  4.8km/h 86% 0.00in /  0mm 0 W/m2
01:19 47.9 °F /  8.8 °C 44.9 °F /  7.2 °C 30.23in /  1023.6hPa SE 1.4mph /  2.3km/h 4mph /  6.4km/h 86% 0.00in /  0mm 0 W/m2
01:24 47.8 °F /  8.8 °C 44.8 °F /  7.1 °C 30.23in /  1023.6hPa ESE 0.6mph /  1km/h 3mph /  4.8km/h 86% 0.00in /  0mm 0 W/m2
01:29 47.8 °F /  8.8 °C 44.8 °F /  7.1 °C 30.23in /  1023.6hPa East 0.2mph /  0.3km/h 1mph /  1.6km/h 86% 0.00in /  0mm 0 W/m2
01:34 47.8 °F /  8.8 °C 44.8 °F /  7.1 °C 30.23in /  1023.6hPa Calm   1mph /  1.6km/h 86% 0.00in /  0mm 0 W/m2
01:39 47.7 °F /  8.7 °C 44.7 °F /  7.1 °C 30.23in /  1023.6hPa Calm     86% 0.00in /  0mm 0 W/m2
01:44 47.7 °F /  8.7 °C 44.6 °F /  7 °C 30.23in /  1023.6hPa East 0.6mph /  1km/h 3mph /  4.8km/h 86% 0.00in /  0mm 0 W/m2
01:49 47.7 °F /  8.7 °C 44.2 °F /  6.8 °C 30.23in /  1023.6hPa Calm   3mph /  4.8km/h 85% 0.00in /  0mm 0 W/m2
01:54 47.5 °F /  8.6 °C 44.1 °F /  6.7 °C 30.23in /  1023.6hPa Calm     85% 0.00in /  0mm 0 W/m2
01:59 47.5 °F /  8.6 °C 44.1 °F /  6.7 °C 30.23in /  1023.6hPa Calm     85% 0.00in /  0mm 0 W/m2
02:04 47.4 °F /  8.6 °C 44 °F /  6.7 °C 30.23in /  1023.6hPa Calm   3mph /  4.8km/h 85% 0.00in /  0mm 0 W/m2
02:09 47.2 °F /  8.4 °C 43.8 °F /  6.6 °C 30.23in /  1023.6hPa Calm   2mph /  3.2km/h 85% 0.00in /  0mm 0 W/m2
02:14 47.1 °F /  8.4 °C 43.6 °F /  6.4 °C 30.23in /  1023.6hPa Calm   1mph /  1.6km/h 84.8% 0.00in /  0mm 0 W/m2
02:19 46.9 °F /  8.3 °C 43.2 °F /  6.2 °C 30.23in /  1023.6hPa ESE 0.4mph /  0.6km/h 2mph /  3.2km/h 84% 0.00in /  0mm 0 W/m2
02:24 46.7 °F /  8.2 °C 42.9 °F /  6.1 °C 30.23in /  1023.6hPa ESE 2mph /  3.2km/h 3mph /  4.8km/h 84% 0.00in /  0mm 0 W/m2
02:29 46.2 °F /  7.9 °C 42.7 °F /  5.9 °C 30.22in /  1023.2hPa ESE 0.2mph /  0.3km/h 2mph /  3.2km/h 84.3% 0.00in /  0mm 0 W/m2
02:34 46 °F /  7.8 °C 42.5 °F /  5.8 °C 30.23in /  1023.6hPa SSW 2.6mph /  4.2km/h 4mph /  6.4km/h 84.6% 0.00in /  0mm 0 W/m2
02:39 45.8 °F /  7.7 °C 42.4 °F /  5.8 °C 30.23in /  1023.6hPa West 1.7mph /  2.7km/h 3mph /  4.8km/h 85% 0.00in /  0mm 0 W/m2
02:44 45.9 °F /  7.7 °C 42.5 °F /  5.8 °C 30.23in /  1023.6hPa West 0.9mph /  1.4km/h 4mph /  6.4km/h 85.2% 0.00in /  0mm 0 W/m2
02:49 45.9 °F /  7.7 °C 42.8 °F /  6 °C 30.23in /  1023.6hPa Calm   1mph /  1.6km/h 86% 0.00in /  0mm 0 W/m2
02:54 45.5 °F /  7.5 °C 42.5 °F /  5.8 °C 30.23in /  1023.6hPa Calm     86% 0.00in /  0mm 0 W/m2
02:59 45.1 °F /  7.3 °C 42.1 °F /  5.6 °C 30.23in /  1023.6hPa Calm     86% 0.00in /  0mm 0 W/m2
03:04 44.7 °F /  7.1 °C 41.6 °F /  5.3 °C 30.23in /  1023.6hPa West 0.2mph /  0.3km/h 2mph /  3.2km/h 86% 0.00in /  0mm 0 W/m2
03:09 44.4 °F /  6.9 °C 41.5 °F /  5.3 °C 30.23in /  1023.6hPa West 1.6mph /  2.6km/h 3mph /  4.8km/h 86.4% 0.00in /  0mm 0 W/m2
03:14 44.2 °F /  6.8 °C 41.5 °F /  5.3 °C 30.23in /  1023.6hPa Calm   2mph /  3.2km/h 87% 0.00in /  0mm 0 W/m2
03:19 44 °F /  6.7 °C 41.3 °F /  5.2 °C 30.23in /  1023.6hPa West 0.4mph /  0.6km/h 2mph /  3.2km/h 87% 0.00in /  0mm 0 W/m2
03:23 43.9 °F /  6.6 °C 41.2 °F /  5.1 °C 30.23in /  1023.6hPa Calm     87% 0.00in /  0mm 0 W/m2
03:29 43.6 °F /  6.4 °C 41.1 °F /  5.1 °C 30.23in /  1023.6hPa Calm     87.8% 0.00in /  0mm 0 W/m2
03:34 43.3 °F /  6.3 °C 41 °F /  5 °C 30.23in /  1023.6hPa Calm   2mph /  3.2km/h 88% 0.00in /  0mm 0 W/m2
03:39 43.2 °F /  6.2 °C 40.8 °F /  4.9 °C 30.23in /  1023.6hPa Calm   2mph /  3.2km/h 88% 0.00in /  0mm 0 W/m2
03:44 43 °F /  6.1 °C 40.6 °F /  4.8 °C 30.23in /  1023.6hPa Calm     88% 0.00in /  0mm 0 W/m2
03:49 42.7 °F /  5.9 °C 40.4 °F /  4.7 °C 30.23in /  1023.6hPa Calm     88% 0.00in /  0mm 0 W/m2
03:54 42.5 °F /  5.8 °C 40.2 °F /  4.6 °C 30.23in /  1023.6hPa Calm     88% 0.00in /  0mm 0 W/m2
03:59 42.4 °F /  5.8 °C 40.1 °F /  4.5 °C 30.23in /  1023.6hPa Calm     88.2% 0.00in /  0mm 0 W/m2
04:04 42.2 °F /  5.7 °C 40 °F /  4.4 °C 30.24in /  1023.9hPa Calm     89% 0.00in /  0mm 0 W/m2
04:08 42.1 °F /  5.6 °C 39.9 °F /  4.4 °C 30.23in /  1023.6hPa Calm     89% 0.00in /  0mm 0 W/m2
04:14 41.7 °F /  5.4 °C 39.6 °F /  4.2 °C 30.24in /  1023.9hPa Calm     89% 0.00in /  0mm 0 W/m2
04:19 41.5 °F /  5.3 °C 39.4 °F /  4.1 °C 30.24in /  1023.9hPa Calm     89% 0.00in /  0mm 0 W/m2
04:24 41.5 °F /  5.3 °C 39.4 °F /  4.1 °C 30.24in /  1023.9hPa Calm     89% 0.00in /  0mm 0 W/m2
04:29 41.4 °F /  5.2 °C 39.2 °F /  4 °C 30.24in /  1023.9hPa Calm     89% 0.00in /  0mm 0 W/m2
04:34 41.1 °F /  5.1 °C 38.9 °F /  3.8 °C 30.24in /  1023.9hPa Calm     89% 0.00in /  0mm 0 W/m2
04:39 40.9 °F /  4.9 °C 38.7 °F /  3.7 °C 30.24in /  1023.9hPa West 1.2mph /  1.9km/h 3mph /  4.8km/h 89% 0.00in /  0mm 0 W/m2
04:44 40.8 °F /  4.9 °C 38.7 °F /  3.7 °C 30.24in /  1023.9hPa Calm     89% 0.00in /  0mm 0 W/m2
04:49 40.6 °F /  4.8 °C 38.6 °F /  3.7 °C 30.24in /  1023.9hPa Calm     89.2% 0.00in /  0mm 0 W/m2
04:54 40.6 °F /  4.8 °C 38.8 °F /  3.8 °C 30.24in /  1023.9hPa Calm     90% 0.00in /  0mm 0 W/m2
04:59 40.5 °F /  4.7 °C 38.7 °F /  3.7 °C 30.24in /  1023.9hPa Calm     90% 0.00in /  0mm 0 W/m2
05:04 40.4 °F /  4.7 °C 38.6 °F /  3.7 °C 30.24in /  1023.9hPa Calm     90% 0.00in /  0mm 0 W/m2
05:09 40.3 °F /  4.6 °C 38.5 °F /  3.6 °C 30.23in /  1023.6hPa Calm     90% 0.00in /  0mm 0 W/m2
05:14 40.3 °F /  4.6 °C 38.5 °F /  3.6 °C 30.23in /  1023.6hPa Calm     90% 0.00in /  0mm 0 W/m2
05:19 40.2 °F /  4.6 °C 38.4 °F /  3.6 °C 30.23in /  1023.6hPa Calm     90% 0.00in /  0mm 0 W/m2
05:24 40.1 °F /  4.5 °C 38.3 °F /  3.5 °C 30.23in /  1023.6hPa Calm     90% 0.00in /  0mm 0 W/m2
05:29 39.9 °F /  4.4 °C 38.1 °F /  3.4 °C 30.23in /  1023.6hPa Calm     90% 0.00in /  0mm 0 W/m2
05:34 39.7 °F /  4.3 °C 37.9 °F /  3.3 °C 30.23in /  1023.6hPa Calm     90% 0.00in /  0mm 0 W/m2
05:39 39.8 °F /  4.3 °C 38 °F /  3.3 °C 30.23in /  1023.6hPa Calm     90% 0.00in /  0mm 0 W/m2
05:44 39.7 °F /  4.3 °C 37.9 °F /  3.3 °C 30.23in /  1023.6hPa Calm     90% 0.00in /  0mm 0 W/m2
05:49 39.7 °F /  4.3 °C 37.9 °F /  3.3 °C 30.23in /  1023.6hPa Calm   1mph /  1.6km/h 90% 0.00in /  0mm 0 W/m2
05:54 39.7 °F /  4.3 °C 37.9 °F /  3.3 °C 30.23in /  1023.6hPa Calm     90% 0.00in /  0mm 0 W/m2
05:59 39.7 °F /  4.3 °C 37.9 °F /  3.3 °C 30.23in /  1023.6hPa Calm     90% 0.00in /  0mm 0 W/m2
06:04 39.7 °F /  4.3 °C 37.9 °F /  3.3 °C 30.23in /  1023.6hPa Calm     90.2% 0.00in /  0mm 0 W/m2
06:09 39.6 °F /  4.2 °C 38 °F /  3.3 °C 30.23in /  1023.6hPa Calm     90.6% 0.00in /  0mm 0 W/m2
06:14 39.6 °F /  4.2 °C 38.1 °F /  3.4 °C 30.23in /  1023.6hPa Calm     91% 0.00in /  0mm 0 W/m2
06:19 39.5 °F /  4.2 °C 38 °F /  3.3 °C 30.23in /  1023.6hPa Calm     91% 0.00in /  0mm 0 W/m2
06:24 39.4 °F /  4.1 °C 37.9 °F /  3.3 °C 30.23in /  1023.6hPa Calm     91% 0.00in /  0mm 0 W/m2
06:29 39.4 °F /  4.1 °C 37.9 °F /  3.3 °C 30.23in /  1023.6hPa Calm     91% 0.00in /  0mm 0 W/m2
06:34 39.3 °F /  4.1 °C 37.8 °F /  3.2 °C 30.24in /  1023.9hPa Calm     91% 0.00in /  0mm 0 W/m2
06:39 39.2 °F /  4 °C 37.8 °F /  3.2 °C 30.24in /  1023.9hPa Calm     91% 0.00in /  0mm 0 W/m2
06:44 39 °F /  3.9 °C 37.6 °F /  3.1 °C 30.24in /  1023.9hPa Calm     91% 0.00in /  0mm 0 W/m2
06:49 38.8 °F /  3.8 °C 37.4 °F /  3 °C 30.24in /  1023.9hPa Calm     91% 0.00in /  0mm 0 W/m2
06:54 38.8 °F /  3.8 °C 37.4 °F /  3 °C 30.24in /  1023.9hPa Calm     91% 0.00in /  0mm 0 W/m2
06:59 38.8 °F /  3.8 °C 37.4 °F /  3 °C 30.24in /  1023.9hPa Calm     91% 0.00in /  0mm 0 W/m2
07:04 38.7 °F /  3.7 °C 37.3 °F /  2.9 °C 30.24in /  1023.9hPa Calm     91% 0.00in /  0mm 0 W/m2
07:09 38.7 °F /  3.7 °C 37.2 °F /  2.9 °C 30.24in /  1023.9hPa Calm     91% 0.00in /  0mm 0 W/m2
07:14 38.5 °F /  3.6 °C 37 °F /  2.8 °C 30.24in /  1023.9hPa Calm     91% 0.00in /  0mm 0 W/m2
07:19 38.5 °F /  3.6 °C 37 °F /  2.8 °C 30.25in /  1024.3hPa Calm     91% 0.00in /  0mm 0 W/m2
07:24 38.3 °F /  3.5 °C 36.9 °F /  2.7 °C 30.25in /  1024.3hPa Calm     91% 0.00in /  0mm 0 W/m2
07:29 38.3 °F /  3.5 °C 36.9 °F /  2.7 °C 30.25in /  1024.3hPa Calm     91% 0.00in /  0mm 0 W/m2
07:34 38.5 °F /  3.6 °C 37 °F /  2.8 °C 30.25in /  1024.3hPa Calm     91% 0.00in /  0mm 0 W/m2
07:39 38.7 °F /  3.7 °C 37.2 °F /  2.9 °C 30.25in /  1024.3hPa Calm     91.4% 0.00in /  0mm 0 W/m2
07:44 38.8 °F /  3.8 °C 37.4 °F /  3 °C 30.26in /  1024.6hPa Calm     91% 0.00in /  0mm 0 W/m2
07:49 38.7 °F /  3.7 °C 37.4 °F /  3 °C 30.26in /  1024.6hPa Calm     91.6% 0.00in /  0mm 5 W/m2
07:54 38.7 °F /  3.7 °C 37.4 °F /  3 °C 30.26in /  1024.6hPa Calm     92% 0.00in /  0mm 9 W/m2
07:59 38.9 °F /  3.8 °C 37.7 °F /  3.2 °C 30.26in /  1024.6hPa Calm     91.8% 0.00in /  0mm 9 W/m2
08:04 39.3 °F /  4.1 °C 38 °F /  3.3 °C 30.26in /  1024.6hPa Calm     92% 0.00in /  0mm 9 W/m2
08:09 39.7 °F /  4.3 °C 38.4 °F /  3.6 °C 30.27in /  1024.9hPa Calm     92% 0.00in /  0mm 11 W/m2
08:14 40.2 °F /  4.6 °C 38.9 °F /  3.8 °C 30.27in /  1024.9hPa Calm     92% 0.00in /  0mm 11 W/m2
08:19 40.3 °F /  4.6 °C 39 °F /  3.9 °C 30.26in /  1024.6hPa Calm     92% 0.00in /  0mm 16 W/m2
08:24 40.3 °F /  4.6 °C 39 °F /  3.9 °C 30.26in /  1024.6hPa West 0.4mph /  0.6km/h 2mph /  3.2km/h 92% 0.00in /  0mm 21 W/m2
08:29 40.3 °F /  4.6 °C 39 °F /  3.9 °C 30.26in /  1024.6hPa Calm   1mph /  1.6km/h 92% 0.00in /  0mm 25 W/m2
08:34 40.5 °F /  4.7 °C 39.2 °F /  4 °C 30.26in /  1024.6hPa Calm     92% 0.00in /  0mm 32 W/m2
08:39 40.5 °F /  4.7 °C 39.2 °F /  4 °C 30.26in /  1024.6hPa Calm     92% 0.00in /  0mm 39 W/m2
08:44 40.5 °F /  4.7 °C 39.2 °F /  4 °C 30.26in /  1024.6hPa Calm     92% 0.00in /  0mm 44 W/m2
08:49 40.6 °F /  4.8 °C 39.3 °F /  4.1 °C 30.26in /  1024.6hPa Calm     92% 0.00in /  0mm 44 W/m2
08:54 40.8 °F /  4.9 °C 39.6 °F /  4.2 °C 30.27in /  1024.9hPa Calm     92% 0.00in /  0mm 46 W/m2
08:59 41.2 °F /  5.1 °C 39.9 °F /  4.4 °C 30.27in /  1024.9hPa Calm     92% 0.00in /  0mm 47 W/m2
09:04 41.6 °F /  5.3 °C 40.3 °F /  4.6 °C 30.27in /  1024.9hPa Calm     92% 0.00in /  0mm 51 W/m2
09:09 41.7 °F /  5.4 °C 40.5 °F /  4.7 °C 30.27in /  1024.9hPa Calm     92% 0.00in /  0mm 54 W/m2
09:14 41.9 °F /  5.5 °C 40.6 °F /  4.8 °C 30.27in /  1024.9hPa Calm     92% 0.00in /  0mm 60 W/m2
09:19 42.1 °F /  5.6 °C 40.8 °F /  4.9 °C 30.27in /  1024.9hPa Calm     92% 0.00in /  0mm 67 W/m2
09:24 42.1 °F /  5.6 °C 40.8 °F /  4.9 °C 30.27in /  1024.9hPa Calm     92% 0.00in /  0mm 69 W/m2
09:29 42.1 °F /  5.6 °C 40.8 °F /  4.9 °C 30.27in /  1024.9hPa Calm     92% 0.00in /  0mm 74 W/m2
09:33 42.3 °F /  5.7 °C 41.3 °F /  5.2 °C 30.27in /  1024.9hPa Calm     92.8% 0.00in /  0mm 74 W/m2
09:39 42.4 °F /  5.8 °C 41.5 °F /  5.3 °C 30.27in /  1024.9hPa Calm     93% 0.00in /  0mm 76 W/m2
09:44 42.4 °F /  5.8 °C 41.5 °F /  5.3 °C 30.27in /  1024.9hPa Calm     93% 0.00in /  0mm 79 W/m2
09:49 42.7 °F /  5.9 °C 41.5 °F /  5.3 °C 30.27in /  1024.9hPa Calm   1mph /  1.6km/h 92.2% 0.00in /  0mm 81 W/m2
09:54 43.2 °F /  6.2 °C 42 °F /  5.6 °C 30.27in /  1024.9hPa Calm   1mph /  1.6km/h 92.8% 0.00in /  0mm 79 W/m2
09:59 43.3 °F /  6.3 °C 42.2 °F /  5.7 °C 30.27in /  1024.9hPa Calm   1mph /  1.6km/h 93% 0.00in /  0mm 77 W/m2
10:04 43.4 °F /  6.3 °C 42.3 °F /  5.7 °C 30.27in /  1024.9hPa Calm   1mph /  1.6km/h 92.8% 0.00in /  0mm 90 W/m2
10:09 43.7 °F /  6.5 °C 42.5 °F /  5.8 °C 30.27in /  1024.9hPa Calm     92.6% 0.00in /  0mm 100 W/m2
10:14 44 °F /  6.7 °C 42.9 °F /  6.1 °C 30.27in /  1024.9hPa Calm     93% 0.00in /  0mm 104 W/m2
10:19 44.2 °F /  6.8 °C 43.2 °F /  6.2 °C 30.27in /  1024.9hPa Calm     93% 0.00in /  0mm 111 W/m2
10:24 44.4 °F /  6.9 °C 43.2 °F /  6.2 °C 30.27in /  1024.9hPa West 0.6mph /  1km/h 2mph /  3.2km/h 92% 0.00in /  0mm 120 W/m2
10:29 44.5 °F /  6.9 °C 43.4 °F /  6.3 °C 30.27in /  1024.9hPa Calm   1mph /  1.6km/h 93% 0.00in /  0mm 123 W/m2
10:34 44.8 °F /  7.1 °C 43.7 °F /  6.5 °C 30.27in /  1024.9hPa Calm     93% 0.00in /  0mm 123 W/m2
10:39 44.9 °F /  7.2 °C 43.7 °F /  6.5 °C 30.27in /  1024.9hPa Calm     92.6% 0.00in /  0mm 125 W/m2
10:44 45 °F /  7.2 °C 43.7 °F /  6.5 °C 30.27in /  1024.9hPa Calm     92% 0.00in /  0mm 134 W/m2
10:49 45.1 °F /  7.3 °C 43.8 °F /  6.6 °C 30.27in /  1024.9hPa Calm     92% 0.00in /  0mm 141 W/m2
10:54 45.4 °F /  7.4 °C 44.2 °F /  6.8 °C 30.27in /  1024.9hPa Calm     92% 0.00in /  0mm 148 W/m2
10:59 45.7 °F /  7.6 °C 44.4 °F /  6.9 °C 30.27in /  1024.9hPa Calm     92% 0.00in /  0mm 149 W/m2
11:04 45.8 °F /  7.7 °C 44.5 °F /  6.9 °C 30.27in /  1024.9hPa Calm     92% 0.00in /  0mm 153 W/m2
11:09 46.1 °F /  7.8 °C 44.9 °F /  7.2 °C 30.27in /  1024.9hPa Calm     92% 0.00in /  0mm 162 W/m2
11:14 46.1 °F /  7.8 °C 44.9 °F /  7.2 °C 30.27in /  1024.9hPa West 0.4mph /  0.6km/h 3mph /  4.8km/h 92% 0.00in /  0mm 176 W/m2
11:19 46.2 °F /  7.9 °C 45 °F /  7.2 °C 30.27in /  1024.9hPa Calm   1mph /  1.6km/h 92% 0.00in /  0mm 188 W/m2
11:24 46.4 °F /  8 °C 45.1 °F /  7.3 °C 30.27in /  1024.9hPa West 0.6mph /  1km/h 2mph /  3.2km/h 91.8% 0.00in /  0mm 188 W/m2
11:29 46.8 °F /  8.2 °C 45.2 °F /  7.3 °C 30.27in /  1024.9hPa Calm   1mph /  1.6km/h 91% 0.00in /  0mm 186 W/m2
11:34 47.1 °F /  8.4 °C 45.5 °F /  7.5 °C 30.27in /  1024.9hPa Calm   1mph /  1.6km/h 91% 0.00in /  0mm 192 W/m2
11:39 47.4 °F /  8.6 °C 45.8 °F /  7.7 °C 30.27in /  1024.9hPa Calm   1mph /  1.6km/h 91% 0.00in /  0mm 188 W/m2
11:43 47.6 °F /  8.7 °C 45.7 °F /  7.6 °C 30.26in /  1024.6hPa Calm   1mph /  1.6km/h 90.3% 0.00in /  0mm 188 W/m2
11:49 47.8 °F /  8.8 °C 45.8 °F /  7.7 °C 30.27in /  1024.9hPa Calm     90% 0.00in /  0mm 176 W/m2
11:54 48.3 °F /  9.1 °C 46.3 °F /  7.9 °C 30.26in /  1024.6hPa Calm     90% 0.00in /  0mm 171 W/m2
11:59 48.8 °F /  9.3 °C 46.6 °F /  8.1 °C 30.26in /  1024.6hPa Calm     89% 0.00in /  0mm 178 W/m2
12:04 49.1 °F /  9.5 °C 46.8 °F /  8.2 °C 30.26in /  1024.6hPa Calm     88.4% 0.00in /  0mm 183 W/m2
12:09 49.4 °F /  9.7 °C 46.7 °F /  8.2 °C 30.26in /  1024.6hPa Calm     87.6% 0.00in /  0mm 188 W/m2
12:14 49.6 °F /  9.8 °C 46.8 °F /  8.2 °C 30.26in /  1024.6hPa West 1.4mph /  2.3km/h 3mph /  4.8km/h 87% 0.00in /  0mm 183 W/m2
12:19 49.6 °F /  9.8 °C 46.5 °F /  8.1 °C 30.26in /  1024.6hPa West 0.2mph /  0.3km/h 3mph /  4.8km/h 85.8% 0.00in /  0mm 178 W/m2
12:24 49.8 °F /  9.9 °C 46.4 °F /  8 °C 30.26in /  1024.6hPa West 0.4mph /  0.6km/h 3mph /  4.8km/h 85% 0.00in /  0mm 171 W/m2
12:29 50 °F /  10 °C 46.5 °F /  8.1 °C 30.26in /  1024.6hPa Calm   1mph /  1.6km/h 84.6% 0.00in /  0mm 167 W/m2
12:34 50.3 °F /  10.2 °C 46.5 °F /  8.1 °C 30.25in /  1024.3hPa Calm     84% 0.00in /  0mm 174 W/m2
12:39 50.5 °F /  10.3 °C 46.4 °F /  8 °C 30.25in /  1024.3hPa Calm     83% 0.00in /  0mm 176 W/m2
12:44 50.9 °F /  10.5 °C 46.7 °F /  8.2 °C 30.25in /  1024.3hPa Calm     82.8% 0.00in /  0mm 185 W/m2
12:48 51.2 °F /  10.7 °C 46.7 °F /  8.2 °C 30.25in /  1024.3hPa Calm     82% 0.00in /  0mm 188 W/m2
12:54 51.2 °F /  10.7 °C 46.6 °F /  8.1 °C 30.25in /  1024.3hPa West 0.4mph /  0.6km/h 2mph /  3.2km/h 81.4% 0.00in /  0mm 195 W/m2
12:59 51.1 °F /  10.6 °C 46.4 °F /  8 °C 30.25in /  1024.3hPa Calm     81% 0.00in /  0mm 204 W/m2
13:04 51.3 °F /  10.7 °C 46.3 °F /  7.9 °C 30.24in /  1023.9hPa Calm     80% 0.00in /  0mm 202 W/m2
13:09 51.5 °F /  10.8 °C 46.4 °F /  8 °C 30.24in /  1023.9hPa Calm     79.8% 0.00in /  0mm 192 W/m2
13:14 51.8 °F /  11 °C 46.4 °F /  8 °C 30.24in /  1023.9hPa West 0.6mph /  1km/h 3mph /  4.8km/h 79.2% 0.00in /  0mm 181 W/m2
13:19 51.6 °F /  10.9 °C 45.9 °F /  7.7 °C 30.24in /  1023.9hPa SSE 2mph /  3.2km/h 5mph /  8km/h 78.2% 0.00in /  0mm 174 W/m2
13:24 51.4 °F /  10.8 °C 45.7 °F /  7.6 °C 30.24in /  1023.9hPa SSE 0.9mph /  1.4km/h 4mph /  6.4km/h 78% 0.00in /  0mm 178 W/m2
13:29 51.4 °F /  10.8 °C 45.7 °F /  7.6 °C 30.24in /  1023.9hPa Calm   2mph /  3.2km/h 78% 0.00in /  0mm 176 W/m2
13:34 51.6 °F /  10.9 °C 45.9 °F /  7.7 °C 30.24in /  1023.9hPa SSE 1mph /  1.6km/h 4mph /  6.4km/h 78% 0.00in /  0mm 167 W/m2
13:39 51.6 °F /  10.9 °C 45.9 °F /  7.7 °C 30.24in /  1023.9hPa SSE 0.2mph /  0.3km/h 3mph /  4.8km/h 78% 0.00in /  0mm 167 W/m2
13:44 51.6 °F /  10.9 °C 45.7 °F /  7.6 °C 30.24in /  1023.9hPa Calm   3mph /  4.8km/h 77.4% 0.00in /  0mm 162 W/m2
13:49 51.8 °F /  11 °C 45.8 °F /  7.7 °C 30.24in /  1023.9hPa Calm   3mph /  4.8km/h 77% 0.00in /  0mm 153 W/m2
13:54 52.2 °F /  11.2 °C 46 °F /  7.8 °C 30.24in /  1023.9hPa SSE 0.6mph /  1km/h 3mph /  4.8km/h 77.2% 0.00in /  0mm 151 W/m2
13:59 52.2 °F /  11.2 °C 46 °F /  7.8 °C 30.24in /  1023.9hPa SSE 1.2mph /  1.9km/h 2mph /  3.2km/h 77% 0.00in /  0mm 148 W/m2
14:04 52.3 °F /  11.3 °C 46.1 °F /  7.8 °C 30.24in /  1023.9hPa Calm   2mph /  3.2km/h 77% 0.00in /  0mm 144 W/m2
14:09 52.2 °F /  11.2 °C 46.1 °F /  7.8 °C 30.23in /  1023.6hPa SSE 0.4mph /  0.6km/h 2mph /  3.2km/h 77% 0.00in /  0mm 137 W/m2
14:14 52.3 °F /  11.3 °C 46.2 °F /  7.9 °C 30.23in /  1023.6hPa SSE 1.2mph /  1.9km/h 3mph /  4.8km/h 77% 0.00in /  0mm 139 W/m2
14:19 52.3 °F /  11.3 °C 46 °F /  7.8 °C 30.23in /  1023.6hPa SSE 0.2mph /  0.3km/h 3mph /  4.8km/h 76.2% 0.00in /  0mm 141 W/m2
14:24 52.3 °F /  11.3 °C 45.9 °F /  7.7 °C 30.23in /  1023.6hPa Calm     76% 0.00in /  0mm 135 W/m2
14:29 52.4 °F /  11.3 °C 45.8 °F /  7.7 °C 30.23in /  1023.6hPa Calm     75.6% 0.00in /  0mm 127 W/m2
14:34 52.6 °F /  11.4 °C 45.8 °F /  7.7 °C 30.22in /  1023.2hPa Calm     75% 0.00in /  0mm 121 W/m2
14:39 52.7 °F /  11.5 °C 45.7 °F /  7.6 °C 30.22in /  1023.2hPa WSW 2.5mph /  4km/h 4mph /  6.4km/h 74.4% 0.00in /  0mm 114 W/m2
14:44 52.5 °F /  11.4 °C 45.2 °F /  7.3 °C 30.22in /  1023.2hPa West 2mph /  3.2km/h 4mph /  6.4km/h 73.6% 0.00in /  0mm 107 W/m2
14:49 52.3 °F /  11.3 °C 44.8 °F /  7.1 °C 30.22in /  1023.2hPa West 0.8mph /  1.3km/h 3mph /  4.8km/h 73% 0.00in /  0mm 102 W/m2
14:54 52.5 °F /  11.4 °C 45.1 °F /  7.3 °C 30.22in /  1023.2hPa West 0.8mph /  1.3km/h 3mph /  4.8km/h 73.6% 0.00in /  0mm 97 W/m2
14:59 52.5 °F /  11.4 °C 45.1 °F /  7.3 °C 30.22in /  1023.2hPa West 0.7mph /  1.1km/h 3mph /  4.8km/h 73.3% 0.00in /  0mm 95 W/m2
15:04 52.5 °F /  11.4 °C 45.3 °F /  7.4 °C 30.22in /  1023.2hPa West 0.4mph /  0.6km/h 2mph /  3.2km/h 74% 0.00in /  0mm 95 W/m2
15:09 52.5 °F /  11.4 °C 45.3 °F /  7.4 °C 30.22in /  1023.2hPa West 1mph /  1.6km/h 3mph /  4.8km/h 74% 0.00in /  0mm 100 W/m2
15:14 52.5 °F /  11.4 °C 45.3 °F /  7.4 °C 30.22in /  1023.2hPa West 0.2mph /  0.3km/h 1mph /  1.6km/h 74% 0.00in /  0mm 104 W/m2
15:19 52.6 °F /  11.4 °C 45.4 °F /  7.4 °C 30.22in /  1023.2hPa Calm     74% 0.00in /  0mm 102 W/m2
15:24 52.9 °F /  11.6 °C 45.9 °F /  7.7 °C 30.22in /  1023.2hPa Calm   1mph /  1.6km/h 74.8% 0.00in /  0mm 98 W/m2
15:29 53.1 °F /  11.7 °C 46.2 °F /  7.9 °C 30.22in /  1023.2hPa West 0.8mph /  1.3km/h 3mph /  4.8km/h 75% 0.00in /  0mm 98 W/m2
15:34 53 °F /  11.7 °C 45.8 °F /  7.7 °C 30.22in /  1023.2hPa SSW 1.1mph /  1.8km/h 5mph /  8km/h 74.2% 0.00in /  0mm 95 W/m2
15:39 52.7 °F /  11.5 °C 45.7 °F /  7.6 °C 30.22in /  1023.2hPa SSW 0.9mph /  1.4km/h 3mph /  4.8km/h 74.4% 0.00in /  0mm 90 W/m2
15:44 52.5 °F /  11.4 °C 45.7 °F /  7.6 °C 30.21in /  1022.9hPa SSW 0.8mph /  1.3km/h 3mph /  4.8km/h 75% 0.00in /  0mm 86 W/m2
15:49 52.5 °F /  11.4 °C 45.7 °F /  7.6 °C 30.21in /  1022.9hPa SSW 0.8mph /  1.3km/h 3mph /  4.8km/h 75% 0.00in /  0mm 84 W/m2
15:54 52.5 °F /  11.4 °C 45.8 °F /  7.7 °C 30.21in /  1022.9hPa SSW 1.2mph /  1.9km/h 2mph /  3.2km/h 75.4% 0.00in /  0mm 83 W/m2
15:59 52.5 °F /  11.4 °C 46 °F /  7.8 °C 30.21in /  1022.9hPa SSW 0.5mph /  0.8km/h 2mph /  3.2km/h 76% 0.00in /  0mm 77 W/m2
16:04 52.5 °F /  11.4 °C 46 °F /  7.8 °C 30.21in /  1022.9hPa Calm     76% 0.00in /  0mm 69 W/m2
16:09 52.7 °F /  11.5 °C 46.2 °F /  7.9 °C 30.21in /  1022.9hPa Calm     76% 0.00in /  0mm 70 W/m2
16:14 52.9 °F /  11.6 °C 46.4 °F /  8 °C 30.20in /  1022.6hPa Calm     76% 0.00in /  0mm 70 W/m2
16:19 53 °F /  11.7 °C 46.5 °F /  8.1 °C 30.20in /  1022.6hPa Calm     76% 0.00in /  0mm 54 W/m2
16:24 53.1 °F /  11.7 °C 46.6 °F /  8.1 °C 30.20in /  1022.6hPa Calm     76% 0.00in /  0mm 42 W/m2
16:29 53.1 °F /  11.7 °C 46.6 °F /  8.1 °C 30.20in /  1022.6hPa Calm     76% 0.00in /  0mm 44 W/m2
16:34 52.9 °F /  11.6 °C 46.4 °F /  8 °C 30.20in /  1022.6hPa Calm     76% 0.00in /  0mm 42 W/m2
16:39 52.9 °F /  11.6 °C 46.7 °F /  8.2 °C 30.20in /  1022.6hPa Calm     76.8% 0.00in /  0mm 33 W/m2
16:44 52.7 °F /  11.5 °C 46.6 °F /  8.1 °C 30.20in /  1022.6hPa Calm     77% 0.00in /  0mm 32 W/m2
16:49 52.5 °F /  11.4 °C 46.3 °F /  7.9 °C 30.20in /  1022.6hPa Calm     76.8% 0.00in /  0mm 28 W/m2
16:54 52.4 °F /  11.3 °C 45.9 °F /  7.7 °C 30.20in /  1022.6hPa Calm     76% 0.00in /  0mm 26 W/m2
16:59 52.5 °F /  11.4 °C 46.4 °F /  8 °C 30.20in /  1022.6hPa Calm     77% 0.00in /  0mm 23 W/m2
17:04 52.8 °F /  11.6 °C 46.9 °F /  8.3 °C 30.20in /  1022.6hPa Calm     77.6% 0.00in /  0mm 21 W/m2
17:09 52.9 °F /  11.6 °C 47.1 °F /  8.4 °C 30.20in /  1022.6hPa Calm     78% 0.00in /  0mm 21 W/m2
17:14 52.9 °F /  11.6 °C 47.4 °F /  8.6 °C 30.20in /  1022.6hPa Calm     78.8% 0.00in /  0mm 12 W/m2
17:19 52.7 °F /  11.5 °C 47.3 °F /  8.5 °C 30.20in /  1022.6hPa Calm     79% 0.00in /  0mm 12 W/m2
17:24 52.5 °F /  11.4 °C 47.1 °F /  8.4 °C 30.20in /  1022.6hPa Calm     79% 0.00in /  0mm 12 W/m2
17:29 52.4 °F /  11.3 °C 47.1 °F /  8.4 °C 30.20in /  1022.6hPa Calm     79.2% 0.00in /  0mm 9 W/m2
17:34 52.3 °F /  11.3 °C 47.3 °F /  8.5 °C 30.19in /  1022.2hPa Calm     80% 0.00in /  0mm 9 W/m2
17:39 52.2 °F /  11.2 °C 47.2 °F /  8.4 °C 30.19in /  1022.2hPa Calm     80% 0.00in /  0mm 9 W/m2
17:44 52.1 °F /  11.2 °C 47 °F /  8.3 °C 30.19in /  1022.2hPa SSW 0.2mph /  0.3km/h 1mph /  1.6km/h 80% 0.00in /  0mm 7 W/m2
17:49 51.9 °F /  11.1 °C 46.9 °F /  8.3 °C 30.20in /  1022.6hPa SSW 0.6mph /  1km/h 4mph /  6.4km/h 80% 0.00in /  0mm 0 W/m2
17:54 51.6 °F /  10.9 °C 46.7 °F /  8.2 °C 30.20in /  1022.6hPa Calm   4mph /  6.4km/h 80.2% 0.00in /  0mm 0 W/m2
17:59 51.7 °F /  10.9 °C 47 °F /  8.3 °C 30.20in /  1022.6hPa Calm   1mph /  1.6km/h 81% 0.00in /  0mm 0 W/m2
18:04 51.6 °F /  10.9 °C 46.9 °F /  8.3 °C 30.20in /  1022.6hPa Calm     81% 0.00in /  0mm 0 W/m2
18:09 51.6 °F /  10.9 °C 46.9 °F /  8.3 °C 30.20in /  1022.6hPa SSW 0.2mph /  0.3km/h 1mph /  1.6km/h 81% 0.00in /  0mm 0 W/m2
18:14 51.6 °F /  10.9 °C 46.9 °F /  8.3 °C 30.20in /  1022.6hPa Calm   1mph /  1.6km/h 81% 0.00in /  0mm 0 W/m2
18:19 51.4 °F /  10.8 °C 46.8 °F /  8.2 °C 30.20in /  1022.6hPa Calm   1mph /  1.6km/h 81% 0.00in /  0mm 0 W/m2
18:24 51.4 °F /  10.8 °C 46.9 °F /  8.3 °C 30.20in /  1022.6hPa Calm     81.6% 0.00in /  0mm 0 W/m2
18:29 51.4 °F /  10.8 °C 46.9 °F /  8.3 °C 30.20in /  1022.6hPa Calm     82% 0.00in /  0mm 0 W/m2
18:34 51.4 °F /  10.8 °C 46.9 °F /  8.3 °C 30.20in /  1022.6hPa Calm     82% 0.00in /  0mm 0 W/m2
18:39 51.3 °F /  10.7 °C 46.8 °F /  8.2 °C 30.20in /  1022.6hPa SSW 0.4mph /  0.6km/h 3mph /  4.8km/h 82% 0.00in /  0mm 0 W/m2
18:44 51.3 °F /  10.7 °C 46.8 °F /  8.2 °C 30.21in /  1022.9hPa Calm     82% 0.00in /  0mm 0 W/m2
18:49 51.3 °F /  10.7 °C 47 °F /  8.3 °C 30.21in /  1022.9hPa Calm     82.6% 0.00in /  0mm 0 W/m2
18:54 51.3 °F /  10.7 °C 47.1 °F /  8.4 °C 30.20in /  1022.6hPa Calm     83% 0.00in /  0mm 0 W/m2
18:59 51.3 °F /  10.7 °C 47.1 °F /  8.4 °C 30.20in /  1022.6hPa Calm     83% 0.00in /  0mm 0 W/m2
19:04 51.1 °F /  10.6 °C 46.9 °F /  8.3 °C 30.20in /  1022.6hPa Calm     83% 0.00in /  0mm 0 W/m2
19:09 51.1 °F /  10.6 °C 46.9 °F /  8.3 °C 30.20in /  1022.6hPa Calm     83% 0.00in /  0mm 0 W/m2
19:14 51.1 °F /  10.6 °C 46.9 °F /  8.3 °C 30.21in /  1022.9hPa Calm     83% 0.00in /  0mm 0 W/m2
19:19 51 °F /  10.6 °C 47 °F /  8.3 °C 30.21in /  1022.9hPa Calm     83.4% 0.00in /  0mm 0 W/m2
19:24 50.9 °F /  10.5 °C 47.1 °F /  8.4 °C 30.21in /  1022.9hPa Calm     84% 0.00in /  0mm 0 W/m2
19:29 50.8 °F /  10.4 °C 47 °F /  8.3 °C 30.21in /  1022.9hPa Calm     84% 0.00in /  0mm 0 W/m2
19:34 50.7 °F /  10.4 °C 46.9 °F /  8.3 °C 30.21in /  1022.9hPa Calm     84% 0.00in /  0mm 0 W/m2
19:39 50.7 °F /  10.4 °C 46.9 °F /  8.3 °C 30.21in /  1022.9hPa Calm     84% 0.00in /  0mm 0 W/m2
19:44 50.6 °F /  10.3 °C 47.1 °F /  8.4 °C 30.21in /  1022.9hPa Calm     84.8% 0.00in /  0mm 0 W/m2
19:49 50.5 °F /  10.3 °C 47.1 °F /  8.4 °C 30.21in /  1022.9hPa Calm     85% 0.00in /  0mm 0 W/m2
19:54 50.5 °F /  10.3 °C 47.1 °F /  8.4 °C 30.21in /  1022.9hPa Calm     85% 0.00in /  0mm 0 W/m2
19:59 50.4 °F /  10.2 °C 47 °F /  8.3 °C 30.21in /  1022.9hPa SSW 0.2mph /  0.3km/h 2mph /  3.2km/h 85% 0.00in /  0mm 0 W/m2
20:04 50.4 °F /  10.2 °C 46.9 °F /  8.3 °C 30.20in /  1022.6hPa Calm   2mph /  3.2km/h 85% 0.00in /  0mm 0 W/m2
20:09 50.4 °F /  10.2 °C 47.3 °F /  8.5 °C 30.20in /  1022.6hPa Calm     86% 0.00in /  0mm 0 W/m2
20:14 50.4 °F /  10.2 °C 47.3 °F /  8.5 °C 30.20in /  1022.6hPa Calm     86% 0.00in /  0mm 0 W/m2
20:19 50.3 °F /  10.2 °C 47.3 °F /  8.5 °C 30.20in /  1022.6hPa Calm     86% 0.00in /  0mm 0 W/m2
20:24 50.2 °F /  10.1 °C 47.1 °F /  8.4 °C 30.20in /  1022.6hPa Calm     86% 0.00in /  0mm 0 W/m2
20:29 50.2 °F /  10.1 °C 47.1 °F /  8.4 °C 30.20in /  1022.6hPa Calm     86% 0.00in /  0mm 0 W/m2
20:34 50.2 °F /  10.1 °C 47.1 °F /  8.4 °C 30.20in /  1022.6hPa Calm     86% 0.00in /  0mm 0 W/m2
20:39 50.2 °F /  10.1 °C 47.1 °F /  8.4 °C 30.20in /  1022.6hPa Calm     86% 0.00in /  0mm 0 W/m2
20:44 50.2 °F /  10.1 °C 47.2 °F /  8.4 °C 30.19in /  1022.2hPa Calm     86.6% 0.00in /  0mm 0 W/m2
20:49 50.2 °F /  10.1 °C 47.3 °F /  8.5 °C 30.19in /  1022.2hPa Calm     86.8% 0.00in /  0mm 0 W/m2
20:54 50.2 °F /  10.1 °C 47.3 °F /  8.5 °C 30.19in /  1022.2hPa Calm     86.8% 0.00in /  0mm 0 W/m2
20:59 50.2 °F /  10.1 °C 47.3 °F /  8.5 °C 30.19in /  1022.2hPa Calm     87% 0.00in /  0mm 0 W/m2
21:04 50 °F /  10 °C 47.1 °F /  8.4 °C 30.19in /  1022.2hPa Calm     87% 0.00in /  0mm 0 W/m2
21:09 50 °F /  10 °C 47.1 °F /  8.4 °C 30.19in /  1022.2hPa Calm     87% 0.00in /  0mm 0 W/m2
21:14 49.8 °F /  9.9 °C 46.9 °F /  8.3 °C 30.19in /  1022.2hPa Calm     87% 0.00in /  0mm 0 W/m2
21:19 49.8 °F /  9.9 °C 46.9 °F /  8.3 °C 30.19in /  1022.2hPa Calm     87% 0.00in /  0mm 0 W/m2
21:24 49.8 °F /  9.9 °C 46.9 °F /  8.3 °C 30.19in /  1022.2hPa Calm     87% 0.00in /  0mm 0 W/m2
21:29 49.8 °F /  9.9 °C 47.3 °F /  8.5 °C 30.19in /  1022.2hPa Calm     88% 0.00in /  0mm 0 W/m2
21:34 49.8 °F /  9.9 °C 47.3 °F /  8.5 °C 30.19in /  1022.2hPa Calm     88% 0.00in /  0mm 0 W/m2
21:39 49.8 °F /  9.9 °C 47.3 °F /  8.5 °C 30.18in /  1021.9hPa Calm     88% 0.00in /  0mm 0 W/m2
21:44 49.6 °F /  9.8 °C 47.1 °F /  8.4 °C 30.18in /  1021.9hPa Calm     88% 0.00in /  0mm 0 W/m2
21:49 49.6 °F /  9.8 °C 47.1 °F /  8.4 °C 30.18in /  1021.9hPa Calm     88% 0.00in /  0mm 0 W/m2
21:54 49.6 °F /  9.8 °C 47.1 °F /  8.4 °C 30.18in /  1021.9hPa Calm     88% 0.00in /  0mm 0 W/m2
21:59 49.6 °F /  9.8 °C 47.1 °F /  8.4 °C 30.18in /  1021.9hPa Calm     88% 0.00in /  0mm 0 W/m2
22:04 49.6 °F /  9.8 °C 47.1 °F /  8.4 °C 30.18in /  1021.9hPa Calm     88% 0.00in /  0mm 0 W/m2
22:09 49.6 °F /  9.8 °C 47.1 °F /  8.4 °C 30.18in /  1021.9hPa Calm     88% 0.00in /  0mm 0 W/m2
22:14 49.6 °F /  9.8 °C 47.1 °F /  8.4 °C 30.18in /  1021.9hPa Calm     88% 0.00in /  0mm 0 W/m2
22:19 49.6 °F /  9.8 °C 47.1 °F /  8.4 °C 30.18in /  1021.9hPa Calm     88% 0.00in /  0mm 0 W/m2
22:24 49.6 °F /  9.8 °C 47.1 °F /  8.4 °C 30.18in /  1021.9hPa Calm     88% 0.00in /  0mm 0 W/m2
22:29 49.6 °F /  9.8 °C 47.1 °F /  8.4 °C 30.18in /  1021.9hPa Calm     88% 0.00in /  0mm 0 W/m2
22:34 49.6 °F /  9.8 °C 47.1 °F /  8.4 °C 30.18in /  1021.9hPa Calm     88% 0.00in /  0mm 0 W/m2
22:39 49.6 °F /  9.8 °C 47.1 °F /  8.4 °C 30.18in /  1021.9hPa Calm     88% 0.00in /  0mm 0 W/m2
22:44 49.5 °F /  9.7 °C 46.9 °F /  8.3 °C 30.18in /  1021.9hPa Calm     88% 0.00in /  0mm 0 W/m2
22:49 49.5 °F /  9.7 °C 46.9 °F /  8.3 °C 30.18in /  1021.9hPa Calm     88% 0.00in /  0mm 0 W/m2
22:54 49.4 °F /  9.7 °C 47 °F /  8.3 °C 30.18in /  1021.9hPa Calm     88.4% 0.00in /  0mm 0 W/m2
22:59 49.3 °F /  9.6 °C 46.9 °F /  8.3 °C 30.18in /  1021.9hPa SSE 1.8mph /  2.9km/h 5mph /  8km/h 88.2% 0.00in /  0mm 0 W/m2
23:04 49.1 °F /  9.5 °C 46.6 °F /  8.1 °C 30.18in /  1021.9hPa SSE 0.5mph /  0.8km/h 4mph /  6.4km/h 88% 0.00in /  0mm 0 W/m2
23:09 49.1 °F /  9.5 °C 46.6 °F /  8.1 °C 30.18in /  1021.9hPa SSE 0.7mph /  1.1km/h 3mph /  4.8km/h 88% 0.00in /  0mm 0 W/m2
23:14 49.2 °F /  9.6 °C 46.7 °F /  8.2 °C 30.18in /  1021.9hPa SE 1.7mph /  2.7km/h 4mph /  6.4km/h 88% 0.00in /  0mm 0 W/m2
23:19 49.3 °F /  9.6 °C 46.8 °F /  8.2 °C 30.17in /  1021.6hPa SE 2.4mph /  3.9km/h 4mph /  6.4km/h 88% 0.00in /  0mm 0 W/m2
23:24 49.3 °F /  9.6 °C 46.8 °F /  8.2 °C 30.17in /  1021.6hPa SE 2.7mph /  4.3km/h 4mph /  6.4km/h 88% 0.00in /  0mm 0 W/m2
23:29 49.5 °F /  9.7 °C 46.8 °F /  8.2 °C 30.17in /  1021.6hPa SE 1.6mph /  2.6km/h 4mph /  6.4km/h 87.6% 0.00in /  0mm 0 W/m2
23:34 49.5 °F /  9.7 °C 46.6 °F /  8.1 °C 30.17in /  1021.6hPa SE 1.3mph /  2.1km/h 4mph /  6.4km/h 87% 0.00in /  0mm 0 W/m2
23:39 49.6 °F /  9.8 °C 46.8 °F /  8.2 °C 30.16in /  1021.2hPa SE 1.8mph /  2.9km/h 3mph /  4.8km/h 87% 0.00in /  0mm 0 W/m2
23:44 49.6 °F /  9.8 °C 46.7 °F /  8.2 °C 30.16in /  1021.2hPa ESE 1.3mph /  2.1km/h 5mph /  8km/h 87% 0.00in /  0mm 0 W/m2
23:49 49.5 °F /  9.7 °C 46.4 °F /  8 °C 30.16in /  1021.2hPa ESE 1.2mph /  1.9km/h 4mph /  6.4km/h 86.2% 0.00in /  0mm 0 W/m2
23:54 49.5 °F /  9.7 °C 46.4 °F /  8 °C 30.16in /  1021.2hPa Calm   2mph /  3.2km/h 86% 0.00in /  0mm 0 W/m2
23:59 49.4 °F /  9.7 °C 46.3 °F /  7.9 °C 30.16in /  1021.2hPa Calm   1mph /  1.6km/h 86% 0.00in /  0mm 0 W/m2
Bath Spa Weather
Compliments of Weather Underground - 2 mb